createdAt,value
2023-06-25T00:00:45.539Z,96749.88
2023-06-25T00:03:13.317Z,96747.81
2023-06-25T00:05:39.827Z,96753.16
2023-06-25T00:08:06.288Z,96757.22
2023-06-25T00:10:32.661Z,96754.53
2023-06-25T00:12:59.130Z,96751.44
2023-06-25T00:15:25.572Z,96746.69
2023-06-25T00:17:51.968Z,96754.06
2023-06-25T00:20:18.691Z,96748.09
2023-06-25T00:23:04.843Z,96743.94
2023-06-25T00:25:32.274Z,96746.78
2023-06-25T00:28:00.094Z,96740.53
2023-06-25T00:30:26.488Z,96738.13
2023-06-25T00:32:55.648Z,96731.81
2023-06-25T00:35:25.836Z,96737.13
2023-06-25T00:37:57.972Z,96737.38
2023-06-25T00:40:24.900Z,96731.38
2023-06-25T00:42:57.775Z,96732.41
2023-06-25T00:45:27.387Z,96732.16
2023-06-25T00:47:55.161Z,96733.97
2023-06-25T00:50:22.860Z,96736.84
2023-06-25T00:52:50.230Z,96734.84
2023-06-25T00:55:17.066Z,96730.91
2023-06-25T00:57:43.853Z,96723.75
2023-06-25T01:00:15.722Z,96724.97
2023-06-25T01:02:47.393Z,96724.09
2023-06-25T01:05:20.801Z,96720.63
2023-06-25T01:07:48.806Z,96728.38
2023-06-25T01:10:15.252Z,96717.69
2023-06-25T01:12:43.763Z,96725.69
2023-06-25T01:15:10.706Z,96721.13
2023-06-25T01:17:38.683Z,96716.81
2023-06-25T01:20:06.879Z,96719.28
2023-06-25T01:22:33.848Z,96708.97
2023-06-25T01:25:00.958Z,96704.84
2023-06-25T01:27:27.611Z,96712.00
2023-06-25T01:29:55.237Z,96699.25
2023-06-25T01:32:23.570Z,96701.69
2023-06-25T01:34:49.961Z,96697.56
2023-06-25T01:37:18.815Z,96702.28
2023-06-25T01:39:50.552Z,96696.78
2023-06-25T01:42:16.942Z,96703.41
2023-06-25T01:44:43.506Z,96686.06
2023-06-25T01:47:10.217Z,96703.25
2023-06-25T01:49:36.636Z,96690.53
2023-06-25T01:52:03.707Z,96699.69
2023-06-25T01:54:30.449Z,96693.94
2023-06-25T01:56:57.734Z,96696.63
2023-06-25T01:59:24.108Z,96685.81
2023-06-25T02:01:50.589Z,96689.59
2023-06-25T02:04:17.108Z,96690.28
2023-06-25T02:06:43.788Z,96680.00
2023-06-25T02:09:10.347Z,96690.72
2023-06-25T02:11:36.766Z,96685.22
2023-06-25T02:14:05.095Z,96683.56
2023-06-25T02:16:31.761Z,96682.16
2023-06-25T02:18:58.369Z,96688.91
2023-06-25T02:21:24.777Z,96685.97
2023-06-25T02:23:51.281Z,96684.53
2023-06-25T02:26:17.666Z,96685.34
2023-06-25T02:28:44.087Z,96681.28
2023-06-25T02:31:10.485Z,96685.59
2023-06-25T02:33:36.947Z,96692.56
2023-06-25T02:36:03.595Z,96694.75
2023-06-25T02:38:29.973Z,96690.81
2023-06-25T02:40:56.397Z,96694.25
2023-06-25T02:43:22.828Z,96682.06
2023-06-25T02:45:49.371Z,96686.94
2023-06-25T02:48:17.859Z,96686.84
2023-06-25T02:50:44.479Z,96683.09
2023-06-25T02:53:10.891Z,96680.88
2023-06-25T02:55:37.765Z,96683.75
2023-06-25T02:58:04.456Z,96683.31
2023-06-25T03:00:31.035Z,96679.81
2023-06-25T03:02:57.639Z,96686.72
2023-06-25T03:05:24.168Z,96682.03
2023-06-25T03:07:56.662Z,96680.00
2023-06-25T03:10:25.494Z,96684.28
2023-06-25T03:12:51.884Z,96681.13
2023-06-25T03:15:21.241Z,96680.75
2023-06-25T03:17:47.752Z,96677.19
2023-06-25T03:20:14.597Z,96675.66
2023-06-25T03:22:41.586Z,96678.97
2023-06-25T03:25:08.882Z,96681.91
2023-06-25T03:27:35.512Z,96672.06
2023-06-25T03:30:02.462Z,96672.78
2023-06-25T03:32:28.944Z,96674.25
2023-06-25T03:34:56.474Z,96677.69
2023-06-25T03:37:24.103Z,96677.69
2023-06-25T03:39:50.669Z,96677.03
2023-06-25T03:42:17.305Z,96682.81
2023-06-25T03:44:49.717Z,96686.66
2023-06-25T03:47:16.139Z,96686.56
2023-06-25T03:49:44.218Z,96688.09
2023-06-25T03:52:10.626Z,96685.44
2023-06-25T03:54:37.013Z,96683.22
2023-06-25T03:57:03.877Z,96676.97
2023-06-25T03:59:30.428Z,96676.38
2023-06-25T04:01:56.894Z,96671.31
2023-06-25T04:04:23.361Z,96673.63
2023-06-25T04:06:49.912Z,96677.13
2023-06-25T04:09:16.526Z,96684.28
2023-06-25T04:11:43.070Z,96675.09
2023-06-25T04:14:09.435Z,96674.25
2023-06-25T04:16:37.418Z,96680.34
2023-06-25T04:19:03.854Z,96681.16
2023-06-25T04:21:30.223Z,96683.38
2023-06-25T04:23:56.579Z,96683.75
2023-06-25T04:26:22.936Z,96681.34
2023-06-25T04:28:49.313Z,96685.41
2023-06-25T04:31:15.702Z,96689.78
2023-06-25T04:33:42.966Z,96684.13
2023-06-25T04:36:11.257Z,96685.00
2023-06-25T04:38:37.630Z,96687.03
2023-06-25T04:41:04.048Z,96694.84
2023-06-25T04:43:30.416Z,96700.44
2023-06-25T04:45:56.843Z,96688.44
2023-06-25T04:48:23.270Z,96687.50
2023-06-25T04:50:49.948Z,96679.78
2023-06-25T04:53:16.374Z,96688.47
2023-06-25T04:55:43.005Z,96682.69
2023-06-25T04:58:09.399Z,96675.28
2023-06-25T05:00:35.773Z,96674.53
2023-06-25T05:03:02.372Z,96681.69
2023-06-25T05:05:28.820Z,96678.72
2023-06-25T05:07:55.196Z,96678.16
2023-06-25T05:10:22.727Z,96685.31
2023-06-25T05:12:49.189Z,96685.31
2023-06-25T05:15:16.152Z,96690.91
2023-06-25T05:17:42.582Z,96688.88
2023-06-25T05:20:09.666Z,96692.63
2023-06-25T05:22:36.125Z,96696.63
2023-06-25T05:25:02.809Z,96689.91
2023-06-25T05:27:30.324Z,96695.63
2023-06-25T05:29:56.724Z,96692.63
2023-06-25T05:32:23.131Z,96691.59
2023-06-25T05:34:49.558Z,96695.31
2023-06-25T05:37:15.958Z,96686.66
2023-06-25T05:39:42.315Z,96696.53
2023-06-25T05:42:08.726Z,96698.19
2023-06-25T05:44:35.103Z,96701.28
2023-06-25T05:47:01.487Z,96690.63
2023-06-25T05:49:27.916Z,96696.09
2023-06-25T05:51:54.269Z,96696.97
2023-06-25T05:54:20.622Z,96697.28
2023-06-25T05:56:47.171Z,96691.97
2023-06-25T05:59:13.564Z,96689.94
2023-06-25T06:01:39.955Z,96693.47
2023-06-25T06:04:07.094Z,96693.88
2023-06-25T06:06:33.502Z,96690.44
2023-06-25T06:08:59.976Z,96693.34
2023-06-25T06:11:28.847Z,96689.38
2023-06-25T06:13:57.458Z,96680.34
2023-06-25T06:16:24.338Z,96683.47
2023-06-25T06:18:50.757Z,96688.81
2023-06-25T06:21:17.117Z,96684.81
2023-06-25T06:23:43.506Z,96680.13
2023-06-25T06:26:09.865Z,96678.00
2023-06-25T06:28:36.237Z,96678.63
2023-06-25T06:31:02.667Z,96676.44
2023-06-25T06:33:29.040Z,96671.72
2023-06-25T06:35:55.468Z,96676.03
2023-06-25T06:38:21.835Z,96672.31
2023-06-25T06:40:48.305Z,96675.00
2023-06-25T06:43:14.696Z,96670.28
2023-06-25T06:45:41.076Z,96671.97
2023-06-25T06:48:07.915Z,96668.69
2023-06-25T06:50:34.361Z,96677.94
2023-06-25T06:53:00.782Z,96684.34
2023-06-25T06:55:27.165Z,96680.44
2023-06-25T06:57:53.517Z,96686.03
2023-06-25T07:00:20.406Z,96684.19
2023-06-25T07:02:46.859Z,96686.81
2023-06-25T07:05:13.966Z,96682.94
2023-06-25T07:07:41.884Z,96681.69
2023-06-25T07:10:08.942Z,96681.72
2023-06-25T07:12:35.320Z,96678.81
2023-06-25T07:15:01.847Z,96683.78
2023-06-25T07:17:28.380Z,96685.19
2023-06-25T07:19:54.785Z,96681.50
2023-06-25T07:22:21.155Z,96683.38
2023-06-25T07:24:47.556Z,96682.34
2023-06-25T07:27:14.016Z,96682.94
2023-06-25T07:29:40.494Z,96687.28
2023-06-25T07:32:08.612Z,96687.31
2023-06-25T07:34:35.535Z,96681.16
2023-06-25T07:37:01.908Z,96676.84
2023-06-25T07:39:34.156Z,96683.00
2023-06-25T07:42:01.217Z,96686.69
2023-06-25T07:46:57.148Z,96680.31
2023-06-25T07:49:23.539Z,96684.44
2023-06-25T07:51:52.206Z,96678.88
2023-06-25T07:54:18.859Z,96683.59
2023-06-25T07:56:45.616Z,96683.00
2023-06-25T07:59:16.143Z,96680.75
2023-06-25T08:01:42.959Z,96681.59
2023-06-25T08:04:09.730Z,96678.53
2023-06-25T08:06:36.285Z,96674.63
2023-06-25T08:09:02.975Z,96673.75
2023-06-25T08:11:29.682Z,96672.09
2023-06-25T08:13:56.053Z,96675.81
2023-06-25T08:16:23.883Z,96683.19
2023-06-25T08:18:50.816Z,96684.63
2023-06-25T08:21:17.301Z,96672.47
2023-06-25T08:23:43.747Z,96676.56
2023-06-25T08:26:13.759Z,96673.91
2023-06-25T08:28:40.701Z,96676.59
2023-06-25T08:31:07.187Z,96672.06
2023-06-25T08:33:35.356Z,96667.50
2023-06-25T08:36:01.719Z,96671.44
2023-06-25T08:38:28.230Z,96669.97
2023-06-25T08:40:55.774Z,96671.75
2023-06-25T08:43:22.490Z,96665.53
2023-06-25T08:45:48.928Z,96666.13
2023-06-25T08:48:15.370Z,96659.69
2023-06-25T08:50:43.834Z,96663.13
2023-06-25T08:53:10.725Z,96661.88
2023-06-25T08:55:38.691Z,96666.00
2023-06-25T08:58:05.628Z,96665.34
2023-06-25T09:00:32.209Z,96658.09
2023-06-25T09:02:58.815Z,96657.31
2023-06-25T09:05:27.079Z,96664.25
2023-06-25T09:07:54.506Z,96674.53
2023-06-25T09:10:21.420Z,96661.78
2023-06-25T09:12:51.921Z,96661.72
2023-06-25T09:15:23.024Z,96664.25
2023-06-25T09:17:50.145Z,96653.03
2023-06-25T09:20:16.620Z,96658.38
2023-06-25T09:23:09.424Z,96657.00
2023-06-25T09:25:35.788Z,96649.28
2023-06-25T09:28:04.387Z,96651.84
2023-06-25T09:30:30.833Z,96654.09
2023-06-25T09:32:57.356Z,96646.16
2023-06-25T09:35:26.313Z,96645.56
2023-06-25T09:37:53.952Z,96642.38
2023-06-25T09:40:20.683Z,96641.91
2023-06-25T09:42:49.523Z,96635.25
2023-06-25T09:45:17.008Z,96641.22
2023-06-25T09:47:46.237Z,96640.75
2023-06-25T09:50:20.872Z,96633.25
2023-06-25T09:52:58.449Z,96631.09
2023-06-25T09:55:29.243Z,96637.97
2023-06-25T09:57:57.112Z,96634.91
2023-06-25T10:00:25.708Z,96636.53
2023-06-25T10:02:53.559Z,96630.09
2023-06-25T10:05:20.212Z,96633.22
2023-06-25T10:07:47.495Z,96624.59
2023-06-25T10:10:43.309Z,96621.66
2023-06-25T10:13:10.361Z,96616.81
2023-06-25T10:15:37.996Z,96620.78
2023-06-25T10:18:07.027Z,96624.72
2023-06-25T10:20:38.127Z,96624.88
2023-06-25T10:23:04.611Z,96625.59
2023-06-25T10:25:31.418Z,96613.66
2023-06-25T10:28:11.215Z,96618.25
2023-06-25T10:30:46.688Z,96611.72
2023-06-25T10:33:17.910Z,96616.47
2023-06-25T10:35:49.062Z,96614.59
2023-06-25T10:38:16.660Z,96602.19
2023-06-25T10:40:43.353Z,96605.22
2023-06-25T10:43:10.793Z,96607.00
2023-06-25T10:45:37.692Z,96599.25
2023-06-25T10:48:12.740Z,96598.56
2023-06-25T10:50:39.176Z,96596.84
2023-06-25T10:53:11.292Z,96599.66
2023-06-25T10:55:39.469Z,96596.69
2023-06-25T10:58:06.086Z,96598.50
2023-06-25T11:00:32.475Z,96608.13
2023-06-25T11:02:59.441Z,96602.75
2023-06-25T11:05:39.974Z,96589.19
2023-06-25T11:08:08.564Z,96601.13
2023-06-25T11:10:37.187Z,96592.56
2023-06-25T11:13:03.882Z,96582.63
2023-06-25T11:15:34.442Z,96590.56
2023-06-25T11:18:01.627Z,96593.03
2023-06-25T11:20:30.799Z,96589.38
2023-06-25T11:22:59.913Z,96589.66
2023-06-25T11:25:26.639Z,96581.19
2023-06-25T11:28:05.460Z,96580.47
2023-06-25T11:30:31.958Z,96574.75
2023-06-25T11:33:16.277Z,96570.78
2023-06-25T11:35:43.956Z,96562.88
2023-06-25T11:38:10.997Z,96570.97
2023-06-25T11:40:39.992Z,96563.59
2023-06-25T11:43:09.364Z,96563.59
2023-06-25T11:45:44.132Z,96563.94
2023-06-25T11:48:17.318Z,96562.28
2023-06-25T11:50:45.099Z,96564.72
2023-06-25T11:53:11.858Z,96560.78
2023-06-25T11:55:39.103Z,96558.09
2023-06-25T11:58:05.799Z,96554.44
2023-06-25T12:00:32.281Z,96545.28
2023-06-25T12:02:58.685Z,96555.09
2023-06-25T12:05:25.182Z,96539.91
2023-06-25T12:07:51.551Z,96546.47
2023-06-25T12:10:18.392Z,96546.06
2023-06-25T12:12:46.098Z,96535.44
2023-06-25T12:15:12.658Z,96536.00
2023-06-25T12:17:39.181Z,96526.78
2023-06-25T12:20:05.997Z,96532.56
2023-06-25T12:22:33.451Z,96528.31
2023-06-25T12:25:00.008Z,96525.22
2023-06-25T12:27:26.372Z,96526.44
2023-06-25T12:29:52.736Z,96523.66
2023-06-25T12:32:19.120Z,96518.66
2023-06-25T12:34:45.507Z,96515.88
2023-06-25T12:37:11.871Z,96514.25
2023-06-25T12:39:38.248Z,96515.03
2023-06-25T12:42:04.960Z,96515.66
2023-06-25T12:44:32.102Z,96506.50
2023-06-25T12:46:58.500Z,96509.19
2023-06-25T12:49:24.880Z,96508.00
2023-06-25T12:51:52.482Z,96508.91
2023-06-25T12:54:19.338Z,96504.09
2023-06-25T12:56:46.221Z,96502.28
2023-06-25T12:59:12.701Z,96501.31
2023-06-25T13:01:39.098Z,96492.25
2023-06-25T13:04:05.938Z,96498.06
2023-06-25T13:06:32.416Z,96497.22
2023-06-25T13:08:58.786Z,96496.03
2023-06-25T13:11:25.170Z,96498.00
2023-06-25T13:13:51.519Z,96494.19
2023-06-25T13:16:17.880Z,96491.84
2023-06-25T13:18:44.330Z,96489.22
2023-06-25T13:21:10.702Z,96494.53
2023-06-25T13:23:38.224Z,96483.28
2023-06-25T13:26:04.718Z,96496.66
2023-06-25T13:28:31.112Z,96489.44
2023-06-25T13:30:57.707Z,96488.75
2023-06-25T13:33:24.139Z,96480.16
2023-06-25T13:35:50.502Z,96483.72
2023-06-25T13:38:16.981Z,96487.44
2023-06-25T13:40:43.362Z,96491.00
2023-06-25T13:43:09.835Z,96485.41
2023-06-25T13:45:36.345Z,96489.88
2023-06-25T13:48:02.911Z,96478.59
2023-06-25T13:50:29.314Z,96482.44
2023-06-25T13:52:55.705Z,96480.34
2023-06-25T13:55:22.136Z,96481.44
2023-06-25T13:57:48.556Z,96480.66
2023-06-25T14:00:15.246Z,96477.69
2023-06-25T14:05:13.397Z,96465.09
2023-06-25T14:07:39.877Z,96470.03
2023-06-25T14:10:07.265Z,96466.72
2023-06-25T14:12:33.775Z,96474.03
2023-06-25T14:15:00.953Z,96466.97
2023-06-25T14:17:27.333Z,96462.94
2023-06-25T14:19:53.772Z,96466.72
2023-06-25T14:22:20.121Z,96467.53
2023-06-25T14:24:46.476Z,96466.75
2023-06-25T14:27:12.829Z,96459.53
2023-06-25T14:29:39.177Z,96451.78
2023-06-25T14:32:05.794Z,96450.22
2023-06-25T14:34:32.220Z,96450.00
2023-06-25T14:36:59.731Z,96447.06
2023-06-25T14:39:26.100Z,96444.94
2023-06-25T14:41:52.467Z,96439.00
2023-06-25T14:44:19.115Z,96444.19
2023-06-25T14:46:45.462Z,96441.78
2023-06-25T14:49:11.815Z,96437.75
2023-06-25T14:51:38.218Z,96438.03
2023-06-25T14:54:04.585Z,96435.84
2023-06-25T14:56:30.968Z,96439.66
2023-06-25T14:58:57.373Z,96436.97
2023-06-25T15:01:23.808Z,96433.72
2023-06-25T15:03:50.295Z,96429.94
2023-06-25T15:06:31.174Z,96436.16
2023-06-25T15:09:01.822Z,96428.56
2023-06-25T15:11:28.187Z,96432.69
2023-06-25T15:13:56.310Z,96420.50
2023-06-25T15:16:22.758Z,96423.47
2023-06-25T15:18:49.130Z,96427.53
2023-06-25T15:21:15.524Z,96428.38
2023-06-25T15:23:43.319Z,96418.88
2023-06-25T15:26:10.336Z,96413.66
2023-06-25T15:28:36.695Z,96409.09
2023-06-25T15:31:03.067Z,96415.88
2023-06-25T15:33:29.484Z,96412.63
2023-06-25T15:35:55.861Z,96411.56
2023-06-25T15:38:22.316Z,96413.44
2023-06-25T15:40:48.697Z,96412.38
2023-06-25T15:43:15.778Z,96410.44
2023-06-25T15:45:42.296Z,96405.56
2023-06-25T15:48:08.821Z,96408.28
2023-06-25T15:50:39.979Z,96404.50
2023-06-25T15:53:06.553Z,96406.66
2023-06-25T15:55:32.904Z,96403.06
2023-06-25T15:58:00.258Z,96394.63
2023-06-25T16:00:26.757Z,96404.38
2023-06-25T16:02:53.304Z,96397.91
2023-06-25T16:05:19.733Z,96395.69
2023-06-25T16:07:46.404Z,96394.63
2023-06-25T16:10:12.833Z,96392.50
2023-06-25T16:12:40.421Z,96399.31
2023-06-25T16:15:07.666Z,96388.19
2023-06-25T16:17:34.067Z,96388.69
2023-06-25T16:20:10.850Z,96384.38
2023-06-25T16:22:39.069Z,96388.47
2023-06-25T16:25:05.817Z,96377.91
2023-06-25T16:27:32.232Z,96382.22
2023-06-25T16:29:59.458Z,96385.47
2023-06-25T16:32:25.821Z,96383.31
2023-06-25T16:34:52.189Z,96388.72
2023-06-25T16:37:18.950Z,96386.00
2023-06-25T16:39:45.353Z,96384.38
2023-06-25T16:42:11.721Z,96379.97
2023-06-25T16:44:38.116Z,96381.06
2023-06-25T16:47:06.252Z,96384.25
2023-06-25T16:49:32.691Z,96383.09
2023-06-25T16:51:59.108Z,96379.75
2023-06-25T16:54:25.550Z,96383.88
2023-06-25T16:56:51.932Z,96379.88
2023-06-25T16:59:18.624Z,96388.50
2023-06-25T17:01:47.201Z,96375.16
2023-06-25T17:04:13.662Z,96378.41
2023-06-25T17:06:40.139Z,96379.97
2023-06-25T17:09:06.522Z,96376.09
2023-06-25T17:11:32.899Z,96377.97
2023-06-25T17:13:59.298Z,96382.09
2023-06-25T17:16:25.728Z,96378.03
2023-06-25T17:18:52.164Z,96388.19
2023-06-25T17:21:18.562Z,96374.00
2023-06-25T17:23:44.927Z,96384.03
2023-06-25T17:26:11.369Z,96384.88
2023-06-25T17:28:37.752Z,96384.22
2023-06-25T17:31:04.126Z,96382.91
2023-06-25T17:33:30.475Z,96389.13
2023-06-25T17:35:56.856Z,96388.84
2023-06-25T17:38:23.245Z,96385.31
2023-06-25T17:40:49.659Z,96391.34
2023-06-25T17:43:16.124Z,96389.19
2023-06-25T17:45:42.492Z,96389.47
2023-06-25T17:48:08.951Z,96390.88
2023-06-25T17:50:35.401Z,96394.69
2023-06-25T17:53:01.819Z,96399.03
2023-06-25T17:55:28.189Z,96400.44
2023-06-25T17:57:54.576Z,96392.53
2023-06-25T18:00:22.197Z,96399.59
2023-06-25T18:02:48.722Z,96401.25
2023-06-25T18:05:15.380Z,96398.00
2023-06-25T18:07:41.756Z,96396.88
2023-06-25T18:10:09.784Z,96398.22
2023-06-25T18:12:39.435Z,96393.88
2023-06-25T18:15:09.087Z,96396.03
2023-06-25T18:17:43.687Z,96390.88
2023-06-25T18:20:11.253Z,96391.69
2023-06-25T18:22:39.418Z,96396.56
2023-06-25T18:25:06.177Z,96403.03
2023-06-25T18:27:32.556Z,96410.88
2023-06-25T18:29:58.923Z,96404.94
2023-06-25T18:32:25.311Z,96406.53
2023-06-25T18:34:51.702Z,96407.56
2023-06-25T18:37:18.080Z,96401.03
2023-06-25T18:39:44.454Z,96401.78
2023-06-25T18:42:10.832Z,96405.00
2023-06-25T18:44:37.395Z,96409.28
2023-06-25T18:47:04.594Z,96402.50
2023-06-25T18:49:32.655Z,96410.53
2023-06-25T18:51:59.037Z,96416.75
2023-06-25T18:54:25.700Z,96419.09
2023-06-25T18:56:52.127Z,96417.19
2023-06-25T18:59:18.491Z,96417.91
2023-06-25T19:01:44.856Z,96414.34
2023-06-25T19:04:13.722Z,96414.31
2023-06-25T19:06:41.058Z,96412.56
2023-06-25T19:09:09.320Z,96417.19
2023-06-25T19:11:35.717Z,96419.84
2023-06-25T19:14:02.469Z,96420.78
2023-06-25T19:16:28.853Z,96421.50
2023-06-25T19:18:55.212Z,96421.66
2023-06-25T19:21:21.759Z,96423.19
2023-06-25T19:23:48.144Z,96429.66
2023-06-25T19:26:14.666Z,96429.88
2023-06-25T19:28:41.056Z,96423.91
2023-06-25T19:31:07.517Z,96426.19
2023-06-25T19:33:33.925Z,96427.63
2023-06-25T19:36:00.421Z,96433.03
2023-06-25T19:38:29.118Z,96431.09
2023-06-25T19:40:55.557Z,96438.75
2023-06-25T19:43:22.306Z,96438.09
2023-06-25T19:45:50.607Z,96435.78
2023-06-25T19:48:17.247Z,96432.91
2023-06-25T19:50:43.950Z,96443.88
2023-06-25T19:53:10.377Z,96444.41
2023-06-25T19:55:36.765Z,96442.19
2023-06-25T19:58:03.117Z,96448.50
2023-06-25T20:00:29.520Z,96451.72
2023-06-25T20:02:56.055Z,96452.47
2023-06-25T20:05:22.570Z,96458.75
2023-06-25T20:07:49.898Z,96459.50
2023-06-25T20:10:19.537Z,96464.25
2023-06-25T20:12:49.713Z,96469.38
2023-06-25T20:15:18.365Z,96464.72
2023-06-25T20:17:45.003Z,96466.66
2023-06-25T20:20:11.724Z,96469.81
2023-06-25T20:22:38.138Z,96471.28
2023-06-25T20:25:04.831Z,96471.28
2023-06-25T20:27:31.258Z,96468.41
2023-06-25T20:30:00.677Z,96469.41
2023-06-25T20:32:27.485Z,96463.41
2023-06-25T20:34:53.872Z,96469.84
2023-06-25T20:37:20.243Z,96464.47
2023-06-25T20:39:46.679Z,96468.75
2023-06-25T20:42:13.096Z,96473.09
2023-06-25T20:44:41.766Z,96481.81
2023-06-25T20:47:08.757Z,96475.59
2023-06-25T20:49:36.692Z,96478.19
2023-06-25T20:52:03.159Z,96478.19
2023-06-25T20:54:29.949Z,96480.41
2023-06-25T20:56:56.634Z,96479.16
2023-06-25T20:59:23.129Z,96478.31
2023-06-25T21:01:49.520Z,96477.66
2023-06-25T21:04:16.112Z,96480.56
2023-06-25T21:06:42.703Z,96483.50
2023-06-25T21:09:10.307Z,96488.00
2023-06-25T21:11:37.036Z,96489.28
2023-06-25T21:14:03.538Z,96484.84
2023-06-25T21:16:30.369Z,96488.81
2023-06-25T21:18:56.733Z,96494.19
2023-06-25T21:21:23.084Z,96492.66
2023-06-25T21:23:49.500Z,96498.97
2023-06-25T21:26:15.968Z,96496.28
2023-06-25T21:28:42.361Z,96499.69
2023-06-25T21:31:08.845Z,96500.84
2023-06-25T21:33:35.247Z,96504.44
2023-06-25T21:36:01.652Z,96503.78
2023-06-25T21:38:28.002Z,96506.56
2023-06-25T21:40:54.366Z,96504.81
2023-06-25T21:43:20.726Z,96505.41
2023-06-25T21:45:47.105Z,96506.66
2023-06-25T21:48:13.532Z,96507.97
2023-06-25T21:50:40.175Z,96505.59
2023-06-25T21:53:06.698Z,96507.59
2023-06-25T21:55:33.094Z,96506.50
2023-06-25T21:57:59.438Z,96506.81
2023-06-25T22:00:26.276Z,96503.75
2023-06-25T22:02:52.860Z,96514.41
2023-06-25T22:05:19.397Z,96508.44
2023-06-25T22:07:45.797Z,96508.06
2023-06-25T22:10:12.197Z,96507.84
2023-06-25T22:12:40.214Z,96507.09
2023-06-25T22:15:07.172Z,96505.69
2023-06-25T22:17:33.586Z,96512.22
2023-06-25T22:19:59.976Z,96512.88
2023-06-25T22:22:26.314Z,96507.50
2023-06-25T22:24:52.724Z,96515.22
2023-06-25T22:27:19.121Z,96512.41
2023-06-25T22:29:46.967Z,96513.31
2023-06-25T22:32:14.916Z,96512.13
2023-06-25T22:34:41.413Z,96510.47
2023-06-25T22:37:07.880Z,96508.53
2023-06-25T22:39:34.376Z,96510.72
2023-06-25T22:42:01.046Z,96510.72
2023-06-25T22:44:27.412Z,96510.81
2023-06-25T22:46:53.753Z,96506.50
2023-06-25T22:49:20.105Z,96509.38
2023-06-25T22:51:49.454Z,96515.06
2023-06-25T22:54:16.453Z,96508.88
2023-06-25T22:56:42.929Z,96516.03
2023-06-25T22:59:09.372Z,96508.44
2023-06-25T23:01:35.797Z,96508.72
2023-06-25T23:04:02.364Z,96518.50
2023-06-25T23:06:29.039Z,96511.94
2023-06-25T23:08:55.478Z,96511.56
2023-06-25T23:11:21.828Z,96513.94
2023-06-25T23:13:49.240Z,96513.00
2023-06-25T23:16:20.180Z,96513.91
2023-06-25T23:18:48.723Z,96508.25
2023-06-25T23:21:15.492Z,96507.41
2023-06-25T23:23:41.884Z,96502.13
2023-06-25T23:26:09.269Z,96504.19
2023-06-25T23:28:36.072Z,96500.63
2023-06-25T23:31:02.522Z,96501.16
2023-06-25T23:33:30.084Z,96507.78
2023-06-25T23:35:56.992Z,96512.09
2023-06-25T23:38:23.392Z,96507.75
2023-06-25T23:40:50.113Z,96516.66
2023-06-25T23:43:16.509Z,96511.53
2023-06-25T23:45:42.986Z,96508.97
2023-06-25T23:48:09.482Z,96511.94
2023-06-25T23:50:36.028Z,96518.06
2023-06-25T23:53:02.966Z,96515.25
2023-06-25T23:55:29.523Z,96516.09
2023-06-25T23:57:55.967Z,96512.63
